Cucuta, Colombia

1:14 AM COT on September 20, 2014 (GMT -0500)
Camilo Daza International | Change Station
CLOSE
Current Station
Airport
Location: Cucuta,
Elevation: 1040 ft
Nearby Weather Stations

Elev 1040 ft 7.93 °N, 72.51 °W | Updated 14 minutes ago

Rain
Rain
73 °F
Feels Like 73 °F
N
0
Wind Variable Wind from North

Today
High -- | Low -- °F
--% Chance of Precip.
Yesterday
High -- | Low -- °F
Precip. -- in
5:39 AM 5:47 PM
Waning Crescent, 14% visible
Pressure 29.94 in
Visibility 5.0 miles
Clouds Scattered Clouds 1500 ft
Scattered Clouds 9000 ft
Dew Point 72 °F
Humidity 94%
Rainfall 0.00 in
Snow Depth Not available.
UV 0 out of 12
Pollen Not available.
Air Quality Not available.
Flu Activity Not available.
METAR SKCC 200600Z 00000KT 8000 RA SCT015 SCT090 23/22 A2994

More Conditions Fewer Conditions

Pressure 29.94 in
Visibility 5.0 miles
Clouds Scattered Clouds 1500 ft
Scattered Clouds 9000 ft
Dew Point 72 °F
Humidity 94%
Rainfall 0.00 in
Snow Depth Not available.
UV 0 out of 12
Pollen Not available.
Air Quality Not available.
Flu Activity Not available.
METAR SKCC 200600Z 00000KT 8000 RA SCT015 SCT090 23/22 A2994

More Conditions Fewer Conditions

10-Day Weather Forecast

Almanac

Astronomy

Sep. 20, 2014 Rise Set
Actual Time 5:39 AM COT 5:47 PM COT
Civil Twilight 5:18 AM COT 6:08 PM COT
Nautical Twilight 4:54 AM COT 6:32 PM COT
Astronomical Twilight 4:30 AM COT 6:56 PM COT
Moon 2:47 AM COT 3:22 PM COT
Length of Visible Light 12h 49m
Length of Day
12h 07m
Tomorrow will be 0m 26s shorter.
Waning Crescent, 14% of the Moon is Illuminated
Today
Waning Crescent
Sep 24
New
Oct 1
First Quarter
Oct 8
Full
Oct 15
Last Quarter

Yesterday's Extremes

Country Highs Country Lows

Community

WunderPhotos

Upload Photos

1,754,777 photos uploaded!

WunderBlogs® & News

Nearby

Snow Depth

Not available.

Earthquake Activity

City Distance Mag. Time & Date
No recent earthquake activity has been reported nearby.
Minimum magnitude displayed is 2.5.

Coastal Water Temperatures

Place Temperature
No Stations Reporting

Nearby Weather Stations